Time;durP1;ratioP1;P1;durP2;ratioP2;P2;SDS_P1;SDS_P2;PMS_P1;PMS_P2;Temp;Humidity;BMP_temperature;BMP_pressure;BME280_temperature;BME280_humidity;BME280_pressure;Samples;Min_cycle;Max_cycle;Signal;HPM_P1;HPM_P2
2023/11/19 00:00:44;;;;;;;1.53;1.43;;;9.40;46.30;;;;;;10274502;28;20244;-73
2023/11/19 00:05:57;;;;;;;1.10;1.10;;;9.40;46.30;;;;;;10274633;28;20234;-73
2023/11/19 00:11:01;;;;;;;1.50;1.40;;;9.50;46.40;;;;;;10274733;28;20313;-73
2023/11/19 00:16:05;;;;;;;1.40;1.30;;;9.50;46.40;;;;;;10274769;28;20246;-73
2023/11/19 00:21:10;;;;;;;1.13;1.03;;;9.50;46.40;;;;;;10275493;28;20259;-73
2023/11/19 00:26:14;;;;;;;1.10;1.10;;;9.60;46.50;;;;;;10273936;28;20717;-73
2023/11/19 00:31:18;;;;;;;1.10;1.10;;;9.70;46.60;;;;;;10274619;28;20263;-73
2023/11/19 00:36:23;;;;;;;1.30;1.20;;;9.70;46.40;;;;;;10275164;28;20334;-73
2023/11/19 00:41:27;;;;;;;7.93;4.93;;;9.80;46.60;;;;;;10274273;28;20252;-73
2023/11/19 00:46:30;;;;;;;7.30;4.27;;;9.90;46.20;;;;;;10273523;28;20235;-73
2023/11/19 00:51:35;;;;;;;2.20;1.87;;;9.90;46.20;;;;;;10274738;28;20314;-73
2023/11/19 00:56:39;;;;;;;1.60;1.50;;;9.90;46.30;;;;;;10280453;28;20224;-73
2023/11/19 01:01:42;;;;;;;1.23;1.20;;;10.00;45.30;;;;;;10280341;28;20330;-73
2023/11/19 01:06:47;;;;;;;1.27;1.20;;;10.00;45.20;;;;;;10280208;28;20231;-73
2023/11/19 01:11:52;;;;;;;1.20;1.20;;;10.00;45.40;;;;;;10280848;28;20266;-73
2023/11/19 01:16:55;;;;;;;2.20;1.50;;;10.00;45.20;;;;;;10280204;28;20223;-73
2023/11/19 01:22:00;;;;;;;1.97;1.87;;;10.10;45.40;;;;;;10279107;28;20239;-73
2023/11/19 01:27:03;;;;;;;2.00;1.80;;;10.10;45.50;;;;;;10277728;28;20239;-74
2023/11/19 01:32:07;;;;;;;1.80;1.70;;;10.20;45.50;;;;;;10277687;28;20719;-73
2023/11/19 01:37:14;;;;;;;1.70;1.60;;;10.20;45.60;;;;;;10276938;28;20800;-73
2023/11/19 01:42:17;;;;;;;1.50;1.40;;;10.30;45.50;;;;;;10277135;28;20231;-73
2023/11/19 01:47:20;;;;;;;1.30;1.20;;;10.30;45.10;;;;;;10277279;28;20231;-73
2023/11/19 01:52:26;;;;;;;1.60;1.30;;;10.40;45.30;;;;;;10277167;28;20324;-73
2023/11/19 01:57:29;;;;;;;1.43;1.33;;;10.40;45.40;;;;;;10276599;28;20231;-73
2023/11/19 02:02:32;;;;;;;1.60;1.50;;;10.40;45.30;;;;;;10277367;28;20254;-75
2023/11/19 02:07:37;;;;;;;1.40;1.40;;;10.40;45.30;;;;;;10275116;28;20231;-73
2023/11/19 02:12:42;;;;;;;1.63;1.53;;;10.50;45.40;;;;;;10275792;28;20269;-73
2023/11/19 02:17:46;;;;;;;1.90;1.80;;;10.50;45.40;;;;;;10276298;28;20255;-75
2023/11/19 02:22:51;;;;;;;2.20;1.67;;;10.60;45.40;;;;;;10240539;28;1131652;-75
2023/11/19 02:27:59;;;;;;;1.43;1.33;;;10.60;45.40;;;;;;10278446;28;20246;-74
2023/11/19 02:33:05;;;;;;;1.60;1.50;;;10.60;45.50;;;;;;10278408;28;20231;-74
2023/11/19 02:38:09;;;;;;;2.10;2.00;;;10.60;45.20;;;;;;10278390;28;20231;-73
2023/11/19 02:43:13;;;;;;;2.37;2.27;;;10.70;45.30;;;;;;10277432;28;20235;-73
2023/11/19 02:48:17;;;;;;;2.40;2.20;;;10.70;45.30;;;;;;10276959;28;20325;-74
2023/11/19 02:53:22;;;;;;;2.27;2.10;;;10.70;45.10;;;;;;10276754;28;20605;-74
2023/11/19 02:58:28;;;;;;;2.23;2.13;;;10.60;45.10;;;;;;10276859;28;20655;-74
2023/11/19 03:03:38;;;;;;;2.30;2.20;;;10.60;45.40;;;;;;10275822;28;20242;-74
2023/11/19 03:08:41;;;;;;;2.60;2.50;;;10.50;45.30;;;;;;10275546;28;20706;-74
2023/11/19 03:13:47;;;;;;;2.70;2.50;;;10.50;45.60;;;;;;10275915;28;20233;-74
2023/11/19 03:18:50;;;;;;;2.60;2.40;;;10.50;45.80;;;;;;10276356;28;20231;-74
2023/11/19 03:23:53;;;;;;;2.77;2.57;;;10.60;45.60;;;;;;10275769;28;20242;-74
2023/11/19 03:28:58;;;;;;;2.40;2.30;;;10.60;45.60;;;;;;10275566;28;20873;-74
2023/11/19 03:34:01;;;;;;;2.50;2.40;;;10.60;45.90;;;;;;10276222;28;20235;-74
2023/11/19 03:39:05;;;;;;;2.60;2.40;;;10.60;45.70;;;;;;10275279;28;20238;-74
2023/11/19 03:44:09;;;;;;;3.00;2.80;;;10.60;45.60;;;;;;10274599;28;20741;-74
2023/11/19 03:49:12;;;;;;;2.47;2.37;;;10.70;46.00;;;;;;10275183;28;20366;-74
2023/11/19 03:54:16;;;;;;;2.93;2.73;;;10.70;45.70;;;;;;10275718;28;20222;-74
2023/11/19 03:59:21;;;;;;;2.83;2.63;;;10.70;45.70;;;;;;10274225;28;20242;-74
2023/11/19 04:04:24;;;;;;;2.90;2.70;;;10.70;46.20;;;;;;10274180;28;20235;-74
2023/11/19 04:09:28;;;;;;;2.80;2.60;;;10.70;46.00;;;;;;10274315;28;20239;-74
2023/11/19 04:14:32;;;;;;;2.53;2.43;;;10.70;45.90;;;;;;10274916;28;20224;-74
2023/11/19 04:19:35;;;;;;;2.60;2.40;;;10.70;46.30;;;;;;10274215;28;20322;-74
2023/11/19 04:24:40;;;;;;;2.17;2.07;;;10.70;45.90;;;;;;10274577;28;20259;-74
2023/11/19 04:29:45;;;;;;;2.50;2.30;;;10.70;46.10;;;;;;10279326;28;20236;-74
2023/11/19 04:34:48;;;;;;;2.17;2.07;;;10.80;46.30;;;;;;10281713;28;20669;-74
2023/11/19 04:39:52;;;;;;;2.23;2.13;;;10.80;46.00;;;;;;10281157;28;20329;-74
2023/11/19 04:44:57;;;;;;;2.20;2.10;;;10.80;46.00;;;;;;10282347;28;20236;-73
2023/11/19 04:50:00;;;;;;;2.30;2.20;;;10.90;47.00;;;;;;10281268;28;20239;-74
2023/11/19 04:55:03;;;;;;;2.70;2.50;;;10.90;46.20;;;;;;10273253;28;20244;-74
2023/11/19 05:00:11;;;;;;;2.50;2.40;;;10.90;46.20;;;;;;10280697;28;20311;-74
2023/11/19 05:05:17;;;;;;;2.57;2.27;;;10.90;46.50;;;;;;10281285;28;20324;-74
2023/11/19 05:10:20;;;;;;;2.77;2.60;;;10.90;46.10;;;;;;10279742;28;20239;-74
2023/11/19 05:15:25;;;;;;;2.70;2.60;;;10.90;46.20;;;;;;10279790;28;20636;-74
2023/11/19 05:20:28;;;;;;;2.20;2.10;;;10.80;46.60;;;;;;10280934;28;20236;-74
2023/11/19 05:25:31;;;;;;;1.43;1.33;;;10.80;46.80;;;;;;10279602;28;20255;-74
2023/11/19 05:30:36;;;;;;;1.00;1.00;;;10.80;48.00;;;;;;10279242;28;20647;-74
2023/11/19 05:35:40;;;;;;;1.00;1.00;;;10.80;49.50;;;;;;10279646;28;20234;-74
2023/11/19 05:40:43;;;;;;;1.63;0.90;;;11.00;49.50;;;;;;10279206;28;20953;-74
2023/11/19 05:45:48;;;;;;;0.90;0.90;;;11.10;49.80;;;;;;10278244;28;20231;-74
2023/11/19 05:50:51;;;;;;;1.00;1.00;;;11.40;50.40;;;;;;10278696;28;20728;-74
2023/11/19 05:55:56;;;;;;;0.90;0.90;;;11.50;49.90;;;;;;10278693;28;20407;-74
2023/11/19 06:01:02;;;;;;;1.30;0.90;;;11.60;49.70;;;;;;10277753;28;20238;-74
2023/11/19 06:06:06;;;;;;;0.80;0.80;;;11.70;50.20;;;;;;10269499;28;20228;-74
2023/11/19 06:11:14;;;;;;;1.33;0.90;;;11.90;49.90;;;;;;10278031;28;20232;-74
2023/11/19 06:16:19;;;;;;;1.10;1.10;;;11.90;50.10;;;;;;10277589;28;20346;-74
2023/11/19 06:21:22;;;;;;;1.40;1.30;;;12.00;50.20;;;;;;10276579;28;20664;-74
2023/11/19 06:26:25;;;;;;;1.10;1.10;;;12.00;49.70;;;;;;10276239;28;20314;-74
2023/11/19 06:31:30;;;;;;;1.00;1.00;;;12.10;49.90;;;;;;10276755;28;20237;-74
2023/11/19 06:36:33;;;;;;;0.90;0.90;;;12.20;50.40;;;;;;10276069;28;20227;-74
2023/11/19 06:41:38;;;;;;;1.03;0.97;;;12.30;49.80;;;;;;10274931;28;20252;-75
2023/11/19 06:46:42;;;;;;;1.20;1.20;;;12.30;49.80;;;;;;10273952;28;20232;-75
2023/11/19 06:51:46;;;;;;;1.37;1.33;;;12.40;50.60;;;;;;10268449;28;20232;-75
2023/11/19 06:56:50;;;;;;;1.67;1.57;;;12.40;50.10;;;;;;10273717;28;20227;-75
2023/11/19 07:01:55;;;;;;;1.20;1.20;;;12.40;50.40;;;;;;10272671;28;20238;-75
2023/11/19 07:06:58;;;;;;;1.20;1.10;;;12.50;50.60;;;;;;10269795;28;20247;-75
2023/11/19 07:12:04;;;;;;;3.13;2.70;;;12.60;50.20;;;;;;10268349;28;20436;-75
2023/11/19 07:17:10;;;;;;;1.30;1.30;;;12.60;50.40;;;;;;10272802;28;20219;-76
2023/11/19 07:22:13;;;;;;;1.50;1.40;;;12.60;51.00;;;;;;10270062;28;20282;-75
2023/11/19 07:27:16;;;;;;;1.87;1.77;;;12.70;50.80;;;;;;10270337;28;20233;-76
2023/11/19 07:32:21;;;;;;;1.23;1.20;;;12.70;50.80;;;;;;10267888;28;20237;-76
2023/11/19 07:37:24;;;;;;;1.40;1.30;;;12.80;51.20;;;;;;10267118;28;20236;-76
2023/11/19 07:42:28;;;;;;;1.43;1.20;;;12.80;50.80;;;;;;10273467;28;20239;-75
2023/11/19 07:47:34;;;;;;;1.20;1.20;;;12.90;50.70;;;;;;10268240;28;20309;-76
2023/11/19 07:52:37;;;;;;;1.40;1.30;;;12.90;51.00;;;;;;10267833;28;20643;-76
2023/11/19 07:57:41;;;;;;;1.50;1.40;;;13.00;50.80;;;;;;10272890;28;20228;-75
2023/11/19 08:02:46;;;;;;;1.50;1.40;;;13.10;51.10;;;;;;10271896;28;20619;-75
2023/11/19 08:07:49;;;;;;;1.20;1.20;;;13.10;51.40;;;;;;10287875;28;20777;-76
2023/11/19 08:12:52;;;;;;;1.27;1.17;;;13.20;50.90;;;;;;10279830;28;20819;-75
2023/11/19 08:17:57;;;;;;;1.60;1.50;;;13.30;51.10;;;;;;10277470;28;20265;-76
2023/11/19 08:23:00;;;;;;;1.10;1.10;;;13.30;51.30;;;;;;10277858;28;20242;-76
2023/11/19 08:28:04;;;;;;;1.10;1.10;;;13.40;51.20;;;;;;10275595;28;20625;-76
2023/11/19 08:33:08;;;;;;;1.53;1.13;;;13.40;51.20;;;;;;10274619;28;20785;-76
2023/11/19 08:38:11;;;;;;;1.30;1.20;;;13.50;51.80;;;;;;10276129;28;20298;-76
2023/11/19 08:43:15;;;;;;;2.83;2.63;;;13.60;51.10;;;;;;10276769;28;20230;-76
2023/11/19 08:48:20;;;;;;;1.10;1.00;;;13.70;51.30;;;;;;10281119;28;20230;-75
2023/11/19 08:53:23;;;;;;;1.10;1.00;;;13.70;51.80;;;;;;10275329;28;20242;-76
2023/11/19 08:58:27;;;;;;;1.27;1.07;;;13.80;51.30;;;;;;10274781;28;20232;-76
2023/11/19 09:03:33;;;;;;;2.33;1.00;;;13.90;51.50;;;;;;10274878;28;20260;-76
2023/11/19 09:08:37;;;;;;;1.00;1.00;;;14.00;52.30;;;;;;10279355;28;20829;-76
2023/11/19 09:13:41;;;;;;;0.90;0.90;;;14.00;51.60;;;;;;10278736;28;20342;-76
2023/11/19 09:18:45;;;;;;;2.00;0.90;;;14.10;51.50;;;;;;10279661;28;20251;-76
2023/11/19 09:23:49;;;;;;;0.83;0.80;;;14.20;52.00;;;;;;10279586;28;20238;-76
2023/11/19 09:28:52;;;;;;;0.80;0.80;;;14.20;51.70;;;;;;10270551;28;20326;-76
2023/11/19 09:33:57;;;;;;;0.80;0.80;;;14.30;51.60;;;;;;10281438;28;20310;-76
2023/11/19 09:39:01;;;;;;;0.80;0.80;;;14.40;51.90;;;;;;10277757;28;20279;-76
2023/11/19 09:44:06;;;;;;;1.07;0.80;;;14.50;51.50;;;;;;10285255;28;20314;-75
2023/11/19 09:49:12;;;;;;;0.87;0.80;;;14.50;51.40;;;;;;10293358;28;20274;-75
2023/11/19 09:54:15;;;;;;;0.90;0.90;;;14.60;52.40;;;;;;10279961;28;20319;-76
2023/11/19 09:59:19;;;;;;;0.90;0.90;;;14.70;52.00;;;;;;10286196;28;20231;-75
2023/11/19 10:04:25;;;;;;;0.73;0.73;;;14.90;51.90;;;;;;10262894;28;20282;-76
2023/11/19 10:09:28;;;;;;;0.80;0.80;;;14.90;52.00;;;;;;10289244;28;20242;-75
2023/11/19 10:14:33;;;;;;;1.00;1.00;;;15.00;51.50;;;;;;10283724;28;20233;-75
2023/11/19 10:19:41;;;;;;;1.30;1.20;;;15.10;51.70;;;;;;10279040;28;20266;-75
2023/11/19 10:24:44;;;;;;;1.07;0.97;;;15.10;52.00;;;;;;10274169;28;20232;-75
2023/11/19 10:29:53;;;;;;;0.80;0.80;;;15.20;51.60;;;;;;10275940;28;20236;-76
2023/11/19 10:35:07;;;;;;;0.80;0.80;;;15.30;51.60;;;;;;10287290;28;20227;-75
2023/11/19 10:40:12;;;;;;;0.80;0.80;;;15.40;52.60;;;;;;10276355;28;20232;-76
2023/11/19 10:45:24;;;;;;;1.10;1.00;;;15.50;51.50;;;;;;10275367;28;20238;-76
2023/11/19 10:50:30;;;;;;;1.23;1.20;;;15.60;51.70;;;;;;10262411;28;20263;-76
2023/11/19 10:55:35;;;;;;;0.70;0.70;;;15.70;51.40;;;;;;10263128;28;20258;-76
2023/11/19 11:00:44;;;;;;;0.90;0.90;;;15.70;50.90;;;;;;10261756;28;20242;-76
2023/11/19 11:05:50;;;;;;;0.80;0.80;;;15.80;51.00;;;;;;10271274;28;20777;-76
2023/11/19 11:10:54;;;;;;;1.30;1.20;;;15.90;50.90;;;;;;10256103;28;20232;-76
2023/11/19 11:16:00;;;;;;;2.10;1.70;;;16.00;51.50;;;;;;10264826;28;20228;-76
2023/11/19 11:21:09;;;;;;;1.30;1.20;;;16.10;50.70;;;;;;10264774;28;20224;-76
2023/11/19 11:26:30;;;;;;;0.90;0.90;;;16.20;51.00;;;;;;10261685;28;20228;-76
2023/11/19 11:31:46;;;;;;;0.90;0.90;;;16.30;50.50;;;;;;10256546;28;20284;-76
2023/11/19 11:36:59;;;;;;;1.10;1.10;;;16.40;50.10;;;;;;10261877;28;20222;-76
2023/11/19 11:42:33;;;;;;;0.80;0.80;;;16.40;49.70;;;;;;10262609;28;20283;-76
2023/11/19 11:48:11;;;;;;;1.07;0.90;;;16.40;49.60;;;;;;10259630;28;20239;-76
2023/11/19 11:53:17;;;;;;;0.83;0.70;;;16.50;49.80;;;;;;10175452;28;20699;-78
2023/11/19 11:58:21;;;;;;;0.63;0.60;;;16.50;49.60;;;;;;10250473;28;20232;-78
2023/11/19 12:03:24;;;;;;;0.70;0.70;;;16.60;50.10;;;;;;10257243;28;20327;-77
2023/11/19 12:08:31;;;;;;;2.53;1.10;;;16.80;50.10;;;;;;10253886;28;20250;-77
2023/11/19 12:13:58;;;;;;;2.73;1.10;;;16.90;49.20;;;;;;10258331;28;20275;-78
2023/11/19 12:19:05;;;;;;;0.70;0.70;;;17.10;49.50;;;;;;10238008;28;20236;-77
2023/11/19 12:24:11;;;;;;;1.17;1.10;;;17.20;48.50;;;;;;10269381;28;20219;-78
2023/11/19 12:29:14;;;;;;;0.90;0.90;;;17.20;48.70;;;;;;10265908;28;20944;-76
2023/11/19 12:34:17;;;;;;;1.30;1.20;;;17.30;48.70;;;;;;10257993;28;20219;-75
2023/11/19 12:39:22;;;;;;;1.10;1.10;;;17.30;48.70;;;;;;10256100;28;20231;-75
2023/11/19 12:44:26;;;;;;;0.80;0.80;;;17.40;48.10;;;;;;10250754;28;20237;-75
2023/11/19 12:49:29;;;;;;;0.70;0.70;;;17.30;48.20;;;;;;10259262;28;20239;-75
2023/11/19 12:54:35;;;;;;;0.60;0.60;;;17.40;48.30;;;;;;10260821;28;20235;-75
2023/11/19 12:59:38;;;;;;;1.13;0.80;;;17.40;47.40;;;;;;10258483;28;20219;-75
2023/11/19 13:04:42;;;;;;;1.90;1.00;;;17.50;47.80;;;;;;10268506;28;20243;-75
2023/11/19 13:09:47;;;;;;;0.80;0.80;;;17.50;48.00;;;;;;10261001;28;20313;-75
2023/11/19 13:14:51;;;;;;;0.80;0.80;;;17.50;47.60;;;;;;10263598;28;20311;-74
2023/11/19 13:19:56;;;;;;;0.80;0.80;;;17.60;47.50;;;;;;10263374;28;20235;-74
2023/11/19 13:25:02;;;;;;;0.80;0.80;;;17.60;47.20;;;;;;10259032;28;20224;-74
2023/11/19 13:30:07;;;;;;;0.97;0.97;;;17.60;46.60;;;;;;10263790;28;20220;-75
2023/11/19 13:35:10;;;;;;;0.80;0.80;;;17.60;46.70;;;;;;10271103;28;20239;-74
2023/11/19 13:40:15;;;;;;;0.70;0.70;;;17.50;46.70;;;;;;10267654;28;20228;-76
2023/11/19 13:45:20;;;;;;;0.70;0.70;;;17.40;46.50;;;;;;10260603;28;20236;-74
2023/11/19 13:50:23;;;;;;;0.60;0.60;;;17.40;46.50;;;;;;10266497;28;20262;-73
2023/11/19 13:55:28;;;;;;;0.70;0.70;;;17.40;46.50;;;;;;10268176;28;20235;-74
2023/11/19 14:00:31;;;;;;;1.40;0.80;;;17.20;46.30;;;;;;10265804;28;20243;-74
2023/11/19 14:05:34;;;;;;;1.07;0.97;;;17.10;46.30;;;;;;10260872;28;20258;-74
2023/11/19 14:10:41;;;;;;;0.97;0.87;;;17.10;46.80;;;;;;10240218;28;20763;-74
2023/11/19 14:15:45;;;;;;;1.33;1.23;;;17.00;46.50;;;;;;10233116;28;20220;-74
2023/11/19 14:20:52;;;;;;;2.37;2.17;;;17.00;46.90;;;;;;10265825;28;20224;-74
2023/11/19 14:25:57;;;;;;;1.60;1.50;;;17.00;47.00;;;;;;10259747;28;20234;-74
2023/11/19 14:31:00;;;;;;;1.10;1.00;;;16.90;46.80;;;;;;10256160;28;20240;-74
2023/11/19 14:36:03;;;;;;;0.80;0.80;;;16.90;47.10;;;;;;10269435;28;20544;-74
2023/11/19 14:41:08;;;;;;;2.03;0.90;;;16.90;47.00;;;;;;10264501;28;20903;-74
2023/11/19 14:46:11;;;;;;;1.00;0.90;;;17.00;46.60;;;;;;10259285;28;20227;-74
2023/11/19 14:51:15;;;;;;;1.20;1.10;;;17.00;46.80;;;;;;10263295;28;20228;-75
2023/11/19 14:56:19;;;;;;;0.80;0.80;;;17.00;46.80;;;;;;10265564;28;20776;-75
2023/11/19 15:01:23;;;;;;;2.57;1.40;;;17.00;46.10;;;;;;10260267;28;20231;-74
2023/11/19 15:06:27;;;;;;;2.57;1.23;;;16.90;46.40;;;;;;10256801;28;20698;-75
2023/11/19 15:11:31;;;;;;;2.10;1.30;;;16.90;46.30;;;;;;10263310;28;20852;-74
2023/11/19 15:16:34;;;;;;;5.70;2.27;;;16.90;46.00;;;;;;10265630;28;20240;-74
2023/11/19 15:21:38;;;;;;;26.67;6.03;;;16.80;46.10;;;;;;10257772;28;20325;-74
2023/11/19 15:26:42;;;;;;;2.63;1.97;;;16.70;46.20;;;;;;10259900;28;20866;-74
2023/11/19 15:31:46;;;;;;;2.57;2.37;;;16.60;46.00;;;;;;10256730;28;20232;-74
2023/11/19 15:36:49;;;;;;;2.80;2.50;;;16.60;46.40;;;;;;10267871;28;20741;-74
2023/11/19 15:41:53;;;;;;;3.27;2.47;;;16.50;46.50;;;;;;10259298;28;20278;-74
2023/11/19 15:46:57;;;;;;;1.87;1.50;;;16.50;46.20;;;;;;10258343;28;20334;-74
2023/11/19 15:52:00;;;;;;;1.63;1.27;;;16.50;46.40;;;;;;10252544;28;20738;-74
2023/11/19 15:57:05;;;;;;;0.90;0.90;;;16.40;46.40;;;;;;10258799;28;20278;-74
2023/11/19 16:02:08;;;;;;;1.50;1.40;;;16.40;46.20;;;;;;10259596;28;20318;-74
2023/11/19 16:07:12;;;;;;;2.17;2.07;;;16.40;46.10;;;;;;10257444;28;20234;-74
2023/11/19 16:12:16;;;;;;;2.50;2.30;;;16.30;46.10;;;;;;10265822;28;20248;-74
2023/11/19 16:17:20;;;;;;;2.47;2.30;;;16.30;46.10;;;;;;10260855;28;20721;-74
2023/11/19 16:22:25;;;;;;;2.30;2.20;;;16.20;46.30;;;;;;10259560;28;20718;-74
2023/11/19 16:27:29;;;;;;;2.10;1.90;;;16.20;46.50;;;;;;10265242;28;20330;-74
2023/11/19 16:32:33;;;;;;;2.50;2.00;;;16.10;46.50;;;;;;10272443;28;20619;-74
2023/11/19 16:37:38;;;;;;;2.50;2.30;;;16.00;46.60;;;;;;10263857;28;20235;-74
2023/11/19 16:42:44;;;;;;;2.70;2.50;;;16.10;46.70;;;;;;10278465;28;20969;-74
2023/11/19 16:47:47;;;;;;;1.90;1.80;;;16.00;46.80;;;;;;10268869;28;20245;-73
2023/11/19 16:52:50;;;;;;;1.90;1.80;;;16.00;46.70;;;;;;10281367;28;20227;-73
2023/11/19 16:57:55;;;;;;;3.27;1.77;;;15.90;46.70;;;;;;10286239;28;21201;-74
2023/11/19 17:03:00;;;;;;;1.40;1.30;;;15.90;47.10;;;;;;10288118;28;20664;-73
2023/11/19 17:08:04;;;;;;;1.00;1.00;;;15.70;47.10;;;;;;10283456;28;20652;-73
2023/11/19 17:13:09;;;;;;;1.00;1.00;;;15.70;47.30;;;;;;10284477;28;20258;-74
2023/11/19 17:18:13;;;;;;;1.07;1.07;;;15.60;47.50;;;;;;10290079;28;20227;-73
2023/11/19 17:23:17;;;;;;;0.93;0.93;;;15.60;47.60;;;;;;10286236;28;20255;-74
2023/11/19 17:28:21;;;;;;;0.80;0.80;;;15.60;47.70;;;;;;10295329;28;20812;-74
2023/11/19 17:33:24;;;;;;;2.87;1.67;;;15.60;47.90;;;;;;10287367;28;20314;-74
2023/11/19 17:38:28;;;;;;;1.93;0.80;;;15.60;47.90;;;;;;10300840;28;20726;-74
2023/11/19 17:43:32;;;;;;;0.90;0.90;;;15.60;47.80;;;;;;10284867;28;20290;-74
2023/11/19 17:48:36;;;;;;;2.30;0.90;;;15.60;47.90;;;;;;10284784;28;20240;-73
2023/11/19 17:53:39;;;;;;;0.90;0.90;;;15.70;47.90;;;;;;10285159;28;20818;-74
2023/11/19 17:58:43;;;;;;;1.00;1.00;;;15.70;47.70;;;;;;10306220;28;20220;-74
2023/11/19 18:03:47;;;;;;;1.67;1.10;;;15.70;47.60;;;;;;10285502;28;20612;-74
2023/11/19 18:08:50;;;;;;;1.23;1.00;;;15.80;47.60;;;;;;10324481;28;20769;-74
2023/11/19 18:13:55;;;;;;;1.10;1.10;;;15.80;47.70;;;;;;10286959;28;20231;-74
2023/11/19 18:18:58;;;;;;;1.10;1.00;;;15.80;47.50;;;;;;10294056;28;20263;-74
2023/11/19 18:24:01;;;;;;;1.30;1.20;;;15.70;47.30;;;;;;10297449;28;20674;-74
2023/11/19 18:29:06;;;;;;;1.10;1.10;;;15.70;47.20;;;;;;10277831;28;20254;-73
2023/11/19 18:34:09;;;;;;;1.30;1.20;;;15.70;47.10;;;;;;10304661;28;20294;-73
2023/11/19 18:39:12;;;;;;;1.90;1.57;;;15.70;47.10;;;;;;10283273;28;20694;-73
2023/11/19 18:44:17;;;;;;;1.60;1.30;;;15.70;47.10;;;;;;10283804;28;20306;-74
2023/11/19 18:49:20;;;;;;;2.23;2.03;;;15.60;47.20;;;;;;10282165;28;20630;-74
2023/11/19 18:54:23;;;;;;;2.40;2.20;;;15.60;47.30;;;;;;10295826;28;20235;-73
2023/11/19 18:59:28;;;;;;;1.20;1.10;;;15.50;47.30;;;;;;10293378;28;20235;-74
2023/11/19 19:04:31;;;;;;;2.00;1.50;;;15.40;47.40;;;;;;10246676;28;20229;-73
2023/11/19 19:09:35;;;;;;;2.40;1.20;;;15.30;47.40;;;;;;10270362;28;20588;-73
2023/11/19 19:14:39;;;;;;;1.50;1.30;;;15.30;47.40;;;;;;10281936;28;20231;-74
2023/11/19 19:19:43;;;;;;;2.50;1.30;;;15.20;47.50;;;;;;10304759;28;20235;-74
2023/11/19 19:24:46;;;;;;;2.23;1.90;;;15.20;47.40;;;;;;10293693;28;20322;-73
2023/11/19 19:29:50;;;;;;;2.53;1.30;;;15.10;47.30;;;;;;10311196;28;20245;-73
2023/11/19 19:34:54;;;;;;;1.13;1.00;;;15.20;47.40;;;;;;10242063;28;20240;-74
2023/11/19 19:39:57;;;;;;;1.10;0.97;;;15.10;47.10;;;;;;10281092;28;20242;-74
2023/11/19 19:45:02;;;;;;;0.87;0.80;;;15.10;47.10;;;;;;10282669;28;20319;-75
2023/11/19 19:50:10;;;;;;;1.20;1.10;;;15.00;46.80;;;;;;10273244;28;20678;-75
2023/11/19 19:55:16;;;;;;;2.57;1.10;;;15.00;47.00;;;;;;10246417;28;20239;-76
2023/11/19 20:00:20;;;;;;;1.80;1.10;;;15.00;47.00;;;;;;10261623;28;20323;-75
2023/11/19 20:05:27;;;;;;;2.67;1.00;;;15.00;46.70;;;;;;10272570;28;20236;-75
2023/11/19 20:10:32;;;;;;;0.90;0.90;;;15.00;46.60;;;;;;10272629;28;20236;-75
2023/11/19 20:15:37;;;;;;;1.20;0.97;;;15.00;46.40;;;;;;10271968;28;20228;-77
2023/11/19 20:20:40;;;;;;;1.87;1.40;;;15.00;46.10;;;;;;10266766;28;20861;-76
2023/11/19 20:25:44;;;;;;;1.83;1.10;;;15.00;46.20;;;;;;10271331;28;20629;-76
2023/11/19 20:30:48;;;;;;;2.00;1.10;;;15.00;46.30;;;;;;10272135;28;20236;-76
2023/11/19 20:35:52;;;;;;;1.30;1.20;;;15.00;46.60;;;;;;10272412;28;20231;-75
2023/11/19 20:40:55;;;;;;;1.30;0.97;;;15.00;45.90;;;;;;10269083;28;20323;-75
2023/11/19 20:46:00;;;;;;;1.50;1.40;;;15.00;46.10;;;;;;10271936;28;20231;-75
2023/11/19 20:51:04;;;;;;;1.50;1.07;;;15.00;45.60;;;;;;10271396;28;20780;-75
2023/11/19 20:56:08;;;;;;;1.10;1.00;;;15.10;45.70;;;;;;10268876;28;20326;-76
2023/11/19 21:01:12;;;;;;;1.43;1.10;;;15.10;45.80;;;;;;10273313;28;21065;-76
2023/11/19 21:06:17;;;;;;;1.00;1.00;;;15.20;45.90;;;;;;10279769;28;20910;-76
2023/11/19 21:11:20;;;;;;;2.10;1.20;;;15.20;46.00;;;;;;10273897;28;20664;-75
2023/11/19 21:16:26;;;;;;;1.57;1.27;;;15.20;45.80;;;;;;10280110;28;20763;-76
2023/11/19 21:21:29;;;;;;;1.73;1.20;;;15.20;45.90;;;;;;10279309;28;20570;-76
2023/11/19 21:26:33;;;;;;;2.13;1.13;;;15.10;45.70;;;;;;10279401;28;20240;-75
2023/11/19 21:31:37;;;;;;;1.40;1.00;;;15.10;45.60;;;;;;10279334;28;20242;-76
2023/11/19 21:36:44;;;;;;;1.50;1.20;;;15.00;45.80;;;;;;10278269;28;20319;-76
2023/11/19 21:41:48;;;;;;;1.10;1.10;;;14.90;45.70;;;;;;10278732;28;20243;-76
2023/11/19 21:46:53;;;;;;;1.27;1.03;;;14.80;45.80;;;;;;10279595;28;20242;-76
2023/11/19 21:51:56;;;;;;;1.50;1.00;;;14.70;45.80;;;;;;10280377;28;20259;-76
2023/11/19 21:56:59;;;;;;;1.30;1.20;;;14.70;45.80;;;;;;10280300;28;20274;-77
2023/11/19 22:02:04;;;;;;;1.30;1.13;;;14.60;46.00;;;;;;10297663;28;20228;-77
2023/11/19 22:07:07;;;;;;;1.17;1.03;;;14.40;46.10;;;;;;10281227;28;20745;-77
2023/11/19 22:12:11;;;;;;;2.17;1.20;;;14.30;46.30;;;;;;10273287;28;20290;-76
2023/11/19 22:17:16;;;;;;;1.47;1.10;;;14.20;46.30;;;;;;10286392;28;20318;-77
2023/11/19 22:22:19;;;;;;;1.80;1.27;;;14.10;46.80;;;;;;10280845;28;20266;-77
2023/11/19 22:27:22;;;;;;;3.97;1.50;;;14.00;46.90;;;;;;10298412;28;20330;-77
2023/11/19 22:32:27;;;;;;;2.67;1.13;;;13.90;46.90;;;;;;10288982;28;20240;-77
2023/11/19 22:37:33;;;;;;;2.93;1.67;;;13.80;47.10;;;;;;10298099;28;20238;-77
2023/11/19 22:42:36;;;;;;;3.23;1.30;;;13.80;47.20;;;;;;10297323;28;20253;-77
2023/11/19 22:47:41;;;;;;;2.40;1.27;;;13.70;47.10;;;;;;10281006;28;20235;-77
2023/11/19 22:52:44;;;;;;;2.67;1.17;;;13.70;47.40;;;;;;10262025;28;20232;-76
2023/11/19 22:57:47;;;;;;;3.53;1.43;;;13.70;47.20;;;;;;10256589;28;20634;-76
2023/11/19 23:02:56;;;;;;;3.00;1.40;;;13.60;47.30;;;;;;10261331;28;20223;-76
2023/11/19 23:08:00;;;;;;;1.73;1.10;;;13.60;47.50;;;;;;10260694;28;20761;-76
2023/11/19 23:13:03;;;;;;;1.93;1.10;;;13.60;47.60;;;;;;10257482;28;20275;-76
2023/11/19 23:18:08;;;;;;;1.17;1.00;;;13.60;47.70;;;;;;10253546;28;20220;-76
2023/11/19 23:23:11;;;;;;;2.87;1.23;;;13.60;47.70;;;;;;10258251;28;20247;-76
2023/11/19 23:28:17;;;;;;;2.87;1.10;;;13.60;47.50;;;;;;10259385;28;20737;-77
2023/11/19 23:33:21;;;;;;;3.87;1.30;;;13.60;47.50;;;;;;10254503;28;20237;-76
2023/11/19 23:38:24;;;;;;;2.13;1.10;;;13.60;47.30;;;;;;10258516;28;20611;-76
2023/11/19 23:43:28;;;;;;;1.93;1.10;;;13.60;47.50;;;;;;10251062;28;20356;-76
2023/11/19 23:48:32;;;;;;;2.87;1.10;;;13.60;47.40;;;;;;10257259;28;20236;-76
2023/11/19 23:53:36;;;;;;;2.70;1.23;;;13.50;47.50;;;;;;10255861;28;20246;-77
2023/11/19 23:58:39;;;;;;;2.87;1.40;;;13.50;47.30;;;;;;10259713;28;20224;-76
